sensor_id;sensor_type;location;lat;lon;timestamp;P1;durP1;ratioP1;P2;durP2;ratioP2
37349;SDS011;23231;52.358;4.926;2022-07-22T00:03:14;6.30;;;2.40;;
37349;SDS011;23231;52.358;4.926;2022-07-22T00:08:14;5.68;;;2.33;;
37349;SDS011;23231;52.358;4.926;2022-07-22T00:13:14;6.32;;;2.22;;
37349;SDS011;23231;52.358;4.926;2022-07-22T00:18:15;7.85;;;2.40;;
37349;SDS011;23231;52.358;4.926;2022-07-22T00:23:15;9.40;;;2.22;;
37349;SDS011;23231;52.358;4.926;2022-07-22T00:28:16;8.85;;;2.92;;
37349;SDS011;23231;52.358;4.926;2022-07-22T00:33:16;6.82;;;2.40;;
37349;SDS011;23231;52.358;4.926;2022-07-22T00:38:17;11.35;;;2.78;;
37349;SDS011;23231;52.358;4.926;2022-07-22T00:43:17;6.07;;;2.40;;
37349;SDS011;23231;52.358;4.926;2022-07-22T00:48:17;7.22;;;2.40;;
37349;SDS011;23231;52.358;4.926;2022-07-22T00:53:18;4.95;;;2.45;;
37349;SDS011;23231;52.358;4.926;2022-07-22T00:58:18;11.32;;;2.40;;
37349;SDS011;23231;52.358;4.926;2022-07-22T01:03:20;8.07;;;2.13;;
37349;SDS011;23231;52.358;4.926;2022-07-22T01:08:20;8.25;;;2.45;;
37349;SDS011;23231;52.358;4.926;2022-07-22T01:13:20;10.80;;;2.40;;
37349;SDS011;23231;52.358;4.926;2022-07-22T01:18:21;8.30;;;2.40;;
37349;SDS011;23231;52.358;4.926;2022-07-22T01:23:22;7.45;;;2.20;;
37349;SDS011;23231;52.358;4.926;2022-07-22T01:28:23;7.53;;;2.10;;
37349;SDS011;23231;52.358;4.926;2022-07-22T01:33:23;7.50;;;2.00;;
37349;SDS011;23231;52.358;4.926;2022-07-22T01:38:24;6.88;;;2.38;;
37349;SDS011;23231;52.358;4.926;2022-07-22T01:43:25;11.07;;;2.25;;
37349;SDS011;23231;52.358;4.926;2022-07-22T01:48:25;5.85;;;2.70;;
37349;SDS011;23231;52.358;4.926;2022-07-22T01:53:26;7.00;;;2.05;;
37349;SDS011;23231;52.358;4.926;2022-07-22T01:58:26;6.10;;;2.15;;
37349;SDS011;23231;52.358;4.926;2022-07-22T02:03:27;9.93;;;2.30;;
37349;SDS011;23231;52.358;4.926;2022-07-22T02:08:27;8.25;;;2.40;;
37349;SDS011;23231;52.358;4.926;2022-07-22T02:13:28;5.85;;;2.45;;
37349;SDS011;23231;52.358;4.926;2022-07-22T02:18:28;7.78;;;2.30;;
37349;SDS011;23231;52.358;4.926;2022-07-22T02:23:28;8.02;;;2.28;;
37349;SDS011;23231;52.358;4.926;2022-07-22T02:28:29;5.47;;;1.92;;
37349;SDS011;23231;52.358;4.926;2022-07-22T02:33:29;8.48;;;2.40;;
37349;SDS011;23231;52.358;4.926;2022-07-22T02:38:30;8.63;;;2.13;;
37349;SDS011;23231;52.358;4.926;2022-07-22T02:43:30;5.25;;;1.95;;
37349;SDS011;23231;52.358;4.926;2022-07-22T02:48:30;5.40;;;1.95;;
37349;SDS011;23231;52.358;4.926;2022-07-22T02:53:31;6.57;;;1.65;;
37349;SDS011;23231;52.358;4.926;2022-07-22T02:58:31;8.88;;;2.20;;
37349;SDS011;23231;52.358;4.926;2022-07-22T03:03:32;5.38;;;1.50;;
37349;SDS011;23231;52.358;4.926;2022-07-22T03:08:32;6.75;;;1.63;;
37349;SDS011;23231;52.358;4.926;2022-07-22T03:13:32;5.30;;;1.65;;
37349;SDS011;23231;52.358;4.926;2022-07-22T03:18:33;3.65;;;1.60;;
37349;SDS011;23231;52.358;4.926;2022-07-22T03:23:34;9.15;;;1.70;;
37349;SDS011;23231;52.358;4.926;2022-07-22T03:28:34;4.93;;;2.22;;
37349;SDS011;23231;52.358;4.926;2022-07-22T03:33:35;7.57;;;2.17;;
37349;SDS011;23231;52.358;4.926;2022-07-22T03:38:36;10.30;;;1.95;;
37349;SDS011;23231;52.358;4.926;2022-07-22T03:43:36;7.63;;;2.10;;
37349;SDS011;23231;52.358;4.926;2022-07-22T03:48:36;6.00;;;1.80;;
37349;SDS011;23231;52.358;4.926;2022-07-22T03:53:37;9.13;;;1.90;;
37349;SDS011;23231;52.358;4.926;2022-07-22T03:58:37;6.15;;;1.83;;
37349;SDS011;23231;52.358;4.926;2022-07-22T04:03:38;5.10;;;1.50;;
37349;SDS011;23231;52.358;4.926;2022-07-22T04:08:38;7.25;;;1.73;;
37349;SDS011;23231;52.358;4.926;2022-07-22T04:13:38;6.35;;;1.80;;
37349;SDS011;23231;52.358;4.926;2022-07-22T04:18:39;4.75;;;1.70;;
37349;SDS011;23231;52.358;4.926;2022-07-22T04:23:39;3.75;;;1.60;;
37349;SDS011;23231;52.358;4.926;2022-07-22T04:28:40;4.65;;;1.55;;
37349;SDS011;23231;52.358;4.926;2022-07-22T04:33:40;5.43;;;1.50;;
37349;SDS011;23231;52.358;4.926;2022-07-22T04:38:41;6.03;;;1.65;;
37349;SDS011;23231;52.358;4.926;2022-07-22T04:43:41;6.30;;;1.92;;
37349;SDS011;23231;52.358;4.926;2022-07-22T04:48:41;5.75;;;1.70;;
37349;SDS011;23231;52.358;4.926;2022-07-22T04:53:42;6.68;;;2.15;;
37349;SDS011;23231;52.358;4.926;2022-07-22T04:58:42;5.50;;;1.73;;
37349;SDS011;23231;52.358;4.926;2022-07-22T05:03:43;4.75;;;1.85;;
37349;SDS011;23231;52.358;4.926;2022-07-22T05:08:43;5.40;;;1.70;;
37349;SDS011;23231;52.358;4.926;2022-07-22T05:13:43;7.72;;;1.70;;
37349;SDS011;23231;52.358;4.926;2022-07-22T05:18:44;7.25;;;1.70;;
37349;SDS011;23231;52.358;4.926;2022-07-22T05:23:44;7.53;;;1.90;;
37349;SDS011;23231;52.358;4.926;2022-07-22T05:28:45;6.03;;;2.30;;
37349;SDS011;23231;52.358;4.926;2022-07-22T05:33:45;8.32;;;1.77;;
37349;SDS011;23231;52.358;4.926;2022-07-22T05:38:45;4.90;;;1.83;;
37349;SDS011;23231;52.358;4.926;2022-07-22T05:43:46;4.72;;;1.80;;
37349;SDS011;23231;52.358;4.926;2022-07-22T05:48:46;6.70;;;1.90;;
37349;SDS011;23231;52.358;4.926;2022-07-22T05:53:47;6.78;;;1.98;;
37349;SDS011;23231;52.358;4.926;2022-07-22T05:58:48;5.20;;;1.60;;
37349;SDS011;23231;52.358;4.926;2022-07-22T06:03:48;8.75;;;1.90;;
37349;SDS011;23231;52.358;4.926;2022-07-22T06:08:49;5.55;;;2.00;;
37349;SDS011;23231;52.358;4.926;2022-07-22T06:13:49;6.40;;;1.70;;
37349;SDS011;23231;52.358;4.926;2022-07-22T06:18:49;5.65;;;1.98;;
37349;SDS011;23231;52.358;4.926;2022-07-22T06:23:50;7.05;;;1.88;;
37349;SDS011;23231;52.358;4.926;2022-07-22T06:28:50;7.53;;;1.83;;
37349;SDS011;23231;52.358;4.926;2022-07-22T06:33:51;5.25;;;1.65;;
37349;SDS011;23231;52.358;4.926;2022-07-22T06:38:51;5.32;;;1.80;;
37349;SDS011;23231;52.358;4.926;2022-07-22T06:43:53;4.07;;;1.58;;
37349;SDS011;23231;52.358;4.926;2022-07-22T06:48:53;4.40;;;1.55;;
37349;SDS011;23231;52.358;4.926;2022-07-22T06:53:54;4.47;;;1.60;;
37349;SDS011;23231;52.358;4.926;2022-07-22T06:58:55;7.22;;;1.90;;
37349;SDS011;23231;52.358;4.926;2022-07-22T07:03:56;5.03;;;1.88;;
37349;SDS011;23231;52.358;4.926;2022-07-22T07:08:56;4.68;;;1.50;;
37349;SDS011;23231;52.358;4.926;2022-07-22T07:13:57;5.35;;;1.90;;
37349;SDS011;23231;52.358;4.926;2022-07-22T07:18:58;6.43;;;1.65;;
37349;SDS011;23231;52.358;4.926;2022-07-22T07:23:59;6.60;;;1.40;;
37349;SDS011;23231;52.358;4.926;2022-07-22T07:29:02;4.55;;;1.40;;
37349;SDS011;23231;52.358;4.926;2022-07-22T07:34:02;5.72;;;1.38;;
37349;SDS011;23231;52.358;4.926;2022-07-22T07:39:03;5.90;;;1.58;;
37349;SDS011;23231;52.358;4.926;2022-07-22T07:44:03;4.07;;;1.35;;
37349;SDS011;23231;52.358;4.926;2022-07-22T07:49:04;5.00;;;1.40;;
37349;SDS011;23231;52.358;4.926;2022-07-22T07:54:04;3.92;;;1.40;;
37349;SDS011;23231;52.358;4.926;2022-07-22T07:59:05;4.22;;;1.65;;
37349;SDS011;23231;52.358;4.926;2022-07-22T08:04:05;3.25;;;1.23;;
37349;SDS011;23231;52.358;4.926;2022-07-22T08:09:06;3.97;;;1.17;;
37349;SDS011;23231;52.358;4.926;2022-07-22T08:14:06;4.30;;;1.40;;
37349;SDS011;23231;52.358;4.926;2022-07-22T08:19:06;5.40;;;1.40;;
37349;SDS011;23231;52.358;4.926;2022-07-22T08:24:08;3.17;;;1.25;;
37349;SDS011;23231;52.358;4.926;2022-07-22T08:29:11;4.97;;;1.45;;
37349;SDS011;23231;52.358;4.926;2022-07-22T08:34:11;4.78;;;1.48;;
37349;SDS011;23231;52.358;4.926;2022-07-22T08:39:12;4.25;;;1.73;;
37349;SDS011;23231;52.358;4.926;2022-07-22T08:44:12;4.72;;;1.15;;
37349;SDS011;23231;52.358;4.926;2022-07-22T08:49:14;3.03;;;1.00;;
37349;SDS011;23231;52.358;4.926;2022-07-22T08:54:17;3.60;;;1.13;;
37349;SDS011;23231;52.358;4.926;2022-07-22T08:59:18;2.17;;;1.17;;
37349;SDS011;23231;52.358;4.926;2022-07-22T09:04:19;1.58;;;0.98;;
37349;SDS011;23231;52.358;4.926;2022-07-22T09:09:28;3.58;;;1.42;;
37349;SDS011;23231;52.358;4.926;2022-07-22T09:14:48;3.28;;;1.20;;
37349;SDS011;23231;52.358;4.926;2022-07-22T09:19:51;3.70;;;1.13;;
37349;SDS011;23231;52.358;4.926;2022-07-22T09:24:52;3.03;;;1.23;;
37349;SDS011;23231;52.358;4.926;2022-07-22T09:29:53;4.18;;;1.30;;
37349;SDS011;23231;52.358;4.926;2022-07-22T09:35:05;5.50;;;1.42;;
37349;SDS011;23231;52.358;4.926;2022-07-22T09:40:17;3.00;;;1.10;;
37349;SDS011;23231;52.358;4.926;2022-07-22T09:45:20;2.97;;;1.00;;
37349;SDS011;23231;52.358;4.926;2022-07-22T09:55:26;6.17;;;1.20;;
37349;SDS011;23231;52.358;4.926;2022-07-22T10:00:28;4.07;;;1.30;;
37349;SDS011;23231;52.358;4.926;2022-07-22T10:05:29;2.83;;;1.20;;
37349;SDS011;23231;52.358;4.926;2022-07-22T10:10:35;4.65;;;1.80;;
37349;SDS011;23231;52.358;4.926;2022-07-22T10:15:37;3.08;;;1.30;;
37349;SDS011;23231;52.358;4.926;2022-07-22T10:20:38;3.65;;;1.02;;
37349;SDS011;23231;52.358;4.926;2022-07-22T10:25:55;3.95;;;1.50;;
37349;SDS011;23231;52.358;4.926;2022-07-22T10:31:16;2.67;;;1.30;;
37349;SDS011;23231;52.358;4.926;2022-07-22T10:36:30;4.18;;;1.30;;
37349;SDS011;23231;52.358;4.926;2022-07-22T10:41:36;2.58;;;1.15;;
37349;SDS011;23231;52.358;4.926;2022-07-22T10:57:14;2.50;;;1.27;;
37349;SDS011;23231;52.358;4.926;2022-07-22T11:02:30;5.60;;;1.50;;
37349;SDS011;23231;52.358;4.926;2022-07-22T11:07:30;4.63;;;1.48;;
37349;SDS011;23231;52.358;4.926;2022-07-22T11:12:33;5.25;;;1.42;;
37349;SDS011;23231;52.358;4.926;2022-07-22T11:17:34;8.95;;;3.35;;
37349;SDS011;23231;52.358;4.926;2022-07-22T11:22:35;2.70;;;1.30;;
37349;SDS011;23231;52.358;4.926;2022-07-22T11:27:36;4.25;;;1.33;;
37349;SDS011;23231;52.358;4.926;2022-07-22T11:32:41;4.53;;;1.80;;
37349;SDS011;23231;52.358;4.926;2022-07-22T11:37:42;4.03;;;1.50;;
37349;SDS011;23231;52.358;4.926;2022-07-22T11:42:43;4.03;;;1.75;;
37349;SDS011;23231;52.358;4.926;2022-07-22T11:47:50;3.83;;;1.35;;
37349;SDS011;23231;52.358;4.926;2022-07-22T11:52:51;4.00;;;1.73;;
37349;SDS011;23231;52.358;4.926;2022-07-22T11:57:52;3.67;;;1.23;;
37349;SDS011;23231;52.358;4.926;2022-07-22T12:02:53;4.90;;;1.63;;
37349;SDS011;23231;52.358;4.926;2022-07-22T12:07:53;3.90;;;1.40;;
37349;SDS011;23231;52.358;4.926;2022-07-22T12:12:54;4.30;;;1.52;;
37349;SDS011;23231;52.358;4.926;2022-07-22T12:18:03;4.85;;;2.00;;
37349;SDS011;23231;52.358;4.926;2022-07-22T12:23:14;5.55;;;2.30;;
37349;SDS011;23231;52.358;4.926;2022-07-22T12:28:15;5.35;;;2.15;;
37349;SDS011;23231;52.358;4.926;2022-07-22T12:33:16;4.63;;;2.00;;
37349;SDS011;23231;52.358;4.926;2022-07-22T12:38:17;7.55;;;2.22;;
37349;SDS011;23231;52.358;4.926;2022-07-22T12:43:17;2.92;;;1.65;;
37349;SDS011;23231;52.358;4.926;2022-07-22T12:48:27;4.75;;;1.70;;
37349;SDS011;23231;52.358;4.926;2022-07-22T12:53:28;4.35;;;1.42;;
37349;SDS011;23231;52.358;4.926;2022-07-22T12:58:29;3.60;;;1.50;;
37349;SDS011;23231;52.358;4.926;2022-07-22T13:03:30;2.22;;;1.50;;
37349;SDS011;23231;52.358;4.926;2022-07-22T13:08:32;5.00;;;1.70;;
37349;SDS011;23231;52.358;4.926;2022-07-22T13:13:33;4.32;;;1.55;;
37349;SDS011;23231;52.358;4.926;2022-07-22T13:18:33;4.38;;;1.60;;
37349;SDS011;23231;52.358;4.926;2022-07-22T13:23:33;4.70;;;1.50;;
37349;SDS011;23231;52.358;4.926;2022-07-22T13:28:34;4.72;;;2.00;;
37349;SDS011;23231;52.358;4.926;2022-07-22T13:33:35;3.47;;;2.08;;
37349;SDS011;23231;52.358;4.926;2022-07-22T13:38:35;4.55;;;2.20;;
37349;SDS011;23231;52.358;4.926;2022-07-22T13:43:36;4.72;;;2.10;;
37349;SDS011;23231;52.358;4.926;2022-07-22T13:48:36;4.88;;;1.70;;
37349;SDS011;23231;52.358;4.926;2022-07-22T13:53:37;4.80;;;2.38;;
37349;SDS011;23231;52.358;4.926;2022-07-22T13:58:38;4.43;;;1.70;;
37349;SDS011;23231;52.358;4.926;2022-07-22T14:03:39;4.65;;;2.03;;
37349;SDS011;23231;52.358;4.926;2022-07-22T14:08:40;5.70;;;2.10;;
37349;SDS011;23231;52.358;4.926;2022-07-22T14:13:40;5.93;;;2.13;;
37349;SDS011;23231;52.358;4.926;2022-07-22T14:18:40;5.28;;;2.30;;
37349;SDS011;23231;52.358;4.926;2022-07-22T14:23:41;3.80;;;1.67;;
37349;SDS011;23231;52.358;4.926;2022-07-22T14:28:41;4.63;;;1.73;;
37349;SDS011;23231;52.358;4.926;2022-07-22T14:33:42;4.38;;;2.03;;
37349;SDS011;23231;52.358;4.926;2022-07-22T14:38:42;3.35;;;1.70;;
37349;SDS011;23231;52.358;4.926;2022-07-22T14:43:44;4.47;;;2.20;;
37349;SDS011;23231;52.358;4.926;2022-07-22T14:48:44;3.83;;;1.90;;
37349;SDS011;23231;52.358;4.926;2022-07-22T14:53:46;3.28;;;1.73;;
37349;SDS011;23231;52.358;4.926;2022-07-22T14:58:46;4.30;;;1.73;;
37349;SDS011;23231;52.358;4.926;2022-07-22T15:03:46;3.88;;;1.65;;
37349;SDS011;23231;52.358;4.926;2022-07-22T15:08:47;5.35;;;1.95;;
37349;SDS011;23231;52.358;4.926;2022-07-22T15:13:48;4.43;;;1.88;;
37349;SDS011;23231;52.358;4.926;2022-07-22T15:18:49;4.63;;;1.80;;
37349;SDS011;23231;52.358;4.926;2022-07-22T15:23:49;4.32;;;1.77;;
37349;SDS011;23231;52.358;4.926;2022-07-22T15:28:49;4.32;;;1.75;;
37349;SDS011;23231;52.358;4.926;2022-07-22T15:33:51;5.25;;;2.13;;
37349;SDS011;23231;52.358;4.926;2022-07-22T15:38:52;3.63;;;1.58;;
37349;SDS011;23231;52.358;4.926;2022-07-22T15:43:53;3.25;;;1.33;;
37349;SDS011;23231;52.358;4.926;2022-07-22T15:48:53;3.83;;;1.88;;
37349;SDS011;23231;52.358;4.926;2022-07-22T15:53:54;5.47;;;2.00;;
37349;SDS011;23231;52.358;4.926;2022-07-22T15:58:54;6.95;;;2.15;;
37349;SDS011;23231;52.358;4.926;2022-07-22T16:04:13;4.25;;;1.58;;
37349;SDS011;23231;52.358;4.926;2022-07-22T16:09:13;4.40;;;1.75;;
37349;SDS011;23231;52.358;4.926;2022-07-22T16:14:14;4.38;;;1.80;;
37349;SDS011;23231;52.358;4.926;2022-07-22T16:19:14;4.65;;;1.70;;
37349;SDS011;23231;52.358;4.926;2022-07-22T16:24:15;4.32;;;1.92;;
37349;SDS011;23231;52.358;4.926;2022-07-22T16:29:15;5.25;;;2.25;;
37349;SDS011;23231;52.358;4.926;2022-07-22T16:34:16;6.72;;;2.33;;
37349;SDS011;23231;52.358;4.926;2022-07-22T16:39:16;4.82;;;2.05;;
37349;SDS011;23231;52.358;4.926;2022-07-22T16:44:16;5.47;;;2.30;;
37349;SDS011;23231;52.358;4.926;2022-07-22T16:49:17;5.55;;;2.30;;
37349;SDS011;23231;52.358;4.926;2022-07-22T16:54:17;8.05;;;2.97;;
37349;SDS011;23231;52.358;4.926;2022-07-22T16:59:18;4.43;;;2.25;;
37349;SDS011;23231;52.358;4.926;2022-07-22T17:04:18;4.15;;;2.00;;
37349;SDS011;23231;52.358;4.926;2022-07-22T17:09:19;6.40;;;2.60;;
37349;SDS011;23231;52.358;4.926;2022-07-22T17:14:19;6.05;;;2.40;;
37349;SDS011;23231;52.358;4.926;2022-07-22T17:19:20;5.10;;;2.42;;
37349;SDS011;23231;52.358;4.926;2022-07-22T17:24:20;4.68;;;2.15;;
37349;SDS011;23231;52.358;4.926;2022-07-22T17:29:21;4.25;;;1.80;;
37349;SDS011;23231;52.358;4.926;2022-07-22T17:34:21;5.03;;;2.20;;
37349;SDS011;23231;52.358;4.926;2022-07-22T17:39:22;6.18;;;1.98;;
37349;SDS011;23231;52.358;4.926;2022-07-22T17:44:22;5.78;;;2.17;;
37349;SDS011;23231;52.358;4.926;2022-07-22T17:49:22;8.52;;;2.50;;
37349;SDS011;23231;52.358;4.926;2022-07-22T17:54:23;6.38;;;2.60;;
37349;SDS011;23231;52.358;4.926;2022-07-22T17:59:23;7.00;;;2.60;;
37349;SDS011;23231;52.358;4.926;2022-07-22T18:04:24;4.90;;;2.17;;
37349;SDS011;23231;52.358;4.926;2022-07-22T18:09:24;5.20;;;2.25;;
37349;SDS011;23231;52.358;4.926;2022-07-22T18:14:25;6.18;;;2.55;;
37349;SDS011;23231;52.358;4.926;2022-07-22T18:19:25;4.32;;;2.67;;
37349;SDS011;23231;52.358;4.926;2022-07-22T18:24:26;4.68;;;2.10;;
37349;SDS011;23231;52.358;4.926;2022-07-22T18:29:26;5.47;;;2.05;;
37349;SDS011;23231;52.358;4.926;2022-07-22T18:34:27;4.50;;;2.20;;
37349;SDS011;23231;52.358;4.926;2022-07-22T18:39:29;5.13;;;2.20;;
37349;SDS011;23231;52.358;4.926;2022-07-22T18:44:29;4.93;;;2.17;;
37349;SDS011;23231;52.358;4.926;2022-07-22T18:49:30;7.25;;;2.53;;
37349;SDS011;23231;52.358;4.926;2022-07-22T18:54:30;7.70;;;2.50;;
37349;SDS011;23231;52.358;4.926;2022-07-22T18:59:30;4.57;;;2.20;;
37349;SDS011;23231;52.358;4.926;2022-07-22T19:04:31;4.43;;;2.20;;
37349;SDS011;23231;52.358;4.926;2022-07-22T19:09:31;5.50;;;2.85;;
37349;SDS011;23231;52.358;4.926;2022-07-22T19:14:32;7.43;;;2.63;;
37349;SDS011;23231;52.358;4.926;2022-07-22T19:19:33;5.22;;;2.30;;
37349;SDS011;23231;52.358;4.926;2022-07-22T19:24:33;5.75;;;2.60;;
37349;SDS011;23231;52.358;4.926;2022-07-22T19:29:34;8.15;;;2.97;;
37349;SDS011;23231;52.358;4.926;2022-07-22T19:34:34;5.65;;;2.42;;
37349;SDS011;23231;52.358;4.926;2022-07-22T19:39:35;5.57;;;2.03;;
37349;SDS011;23231;52.358;4.926;2022-07-22T19:44:35;4.50;;;2.30;;
37349;SDS011;23231;52.358;4.926;2022-07-22T19:49:35;4.95;;;2.17;;
37349;SDS011;23231;52.358;4.926;2022-07-22T19:54:36;6.57;;;2.28;;
37349;SDS011;23231;52.358;4.926;2022-07-22T19:59:36;5.20;;;2.67;;
37349;SDS011;23231;52.358;4.926;2022-07-22T20:04:37;4.35;;;2.33;;
37349;SDS011;23231;52.358;4.926;2022-07-22T20:09:37;6.32;;;2.95;;
37349;SDS011;23231;52.358;4.926;2022-07-22T20:14:38;6.88;;;2.33;;
37349;SDS011;23231;52.358;4.926;2022-07-22T20:19:41;5.72;;;2.65;;
37349;SDS011;23231;52.358;4.926;2022-07-22T20:24:42;4.28;;;2.47;;
37349;SDS011;23231;52.358;4.926;2022-07-22T20:29:42;5.55;;;2.70;;
37349;SDS011;23231;52.358;4.926;2022-07-22T20:34:43;8.93;;;2.97;;
37349;SDS011;23231;52.358;4.926;2022-07-22T20:39:43;4.93;;;2.60;;
37349;SDS011;23231;52.358;4.926;2022-07-22T20:44:43;6.00;;;2.60;;
37349;SDS011;23231;52.358;4.926;2022-07-22T20:49:44;6.45;;;2.67;;
37349;SDS011;23231;52.358;4.926;2022-07-22T20:54:44;8.13;;;2.58;;
37349;SDS011;23231;52.358;4.926;2022-07-22T20:59:45;5.00;;;2.38;;
37349;SDS011;23231;52.358;4.926;2022-07-22T21:04:45;5.95;;;2.90;;
37349;SDS011;23231;52.358;4.926;2022-07-22T21:09:45;6.43;;;3.20;;
37349;SDS011;23231;52.358;4.926;2022-07-22T21:14:46;6.55;;;2.72;;
37349;SDS011;23231;52.358;4.926;2022-07-22T21:19:46;5.95;;;2.67;;
37349;SDS011;23231;52.358;4.926;2022-07-22T21:24:46;5.50;;;2.78;;
37349;SDS011;23231;52.358;4.926;2022-07-22T21:29:47;5.25;;;2.70;;
37349;SDS011;23231;52.358;4.926;2022-07-22T21:34:48;4.88;;;2.65;;
37349;SDS011;23231;52.358;4.926;2022-07-22T21:39:48;5.05;;;2.60;;
37349;SDS011;23231;52.358;4.926;2022-07-22T21:44:49;7.45;;;2.80;;
37349;SDS011;23231;52.358;4.926;2022-07-22T21:49:49;6.50;;;2.60;;
37349;SDS011;23231;52.358;4.926;2022-07-22T21:54:50;5.10;;;2.63;;
37349;SDS011;23231;52.358;4.926;2022-07-22T21:59:50;5.53;;;2.50;;
37349;SDS011;23231;52.358;4.926;2022-07-22T22:04:50;6.88;;;2.60;;
37349;SDS011;23231;52.358;4.926;2022-07-22T22:09:51;6.57;;;2.50;;
37349;SDS011;23231;52.358;4.926;2022-07-22T22:14:51;5.70;;;2.42;;
37349;SDS011;23231;52.358;4.926;2022-07-22T22:19:53;6.07;;;2.75;;
37349;SDS011;23231;52.358;4.926;2022-07-22T22:24:54;6.25;;;2.50;;
37349;SDS011;23231;52.358;4.926;2022-07-22T22:29:54;5.72;;;2.70;;
37349;SDS011;23231;52.358;4.926;2022-07-22T22:34:54;5.35;;;2.85;;
37349;SDS011;23231;52.358;4.926;2022-07-22T22:39:55;6.53;;;3.40;;
37349;SDS011;23231;52.358;4.926;2022-07-22T22:44:55;6.93;;;3.50;;
37349;SDS011;23231;52.358;4.926;2022-07-22T22:49:56;4.60;;;3.20;;
37349;SDS011;23231;52.358;4.926;2022-07-22T22:54:56;5.60;;;3.15;;
37349;SDS011;23231;52.358;4.926;2022-07-22T22:59:56;5.65;;;3.05;;
37349;SDS011;23231;52.358;4.926;2022-07-22T23:04:57;7.22;;;3.13;;
37349;SDS011;23231;52.358;4.926;2022-07-22T23:09:57;7.30;;;2.80;;
37349;SDS011;23231;52.358;4.926;2022-07-22T23:14:58;8.98;;;3.30;;
37349;SDS011;23231;52.358;4.926;2022-07-22T23:19:58;7.88;;;3.20;;
37349;SDS011;23231;52.358;4.926;2022-07-22T23:24:59;6.25;;;2.80;;
37349;SDS011;23231;52.358;4.926;2022-07-22T23:29:59;9.95;;;3.10;;
37349;SDS011;23231;52.358;4.926;2022-07-22T23:35:00;7.30;;;3.03;;
37349;SDS011;23231;52.358;4.926;2022-07-22T23:40:00;7.15;;;3.58;;
37349;SDS011;23231;52.358;4.926;2022-07-22T23:45:01;6.13;;;3.00;;
37349;SDS011;23231;52.358;4.926;2022-07-22T23:50:01;4.97;;;3.05;;
37349;SDS011;23231;52.358;4.926;2022-07-22T23:55:02;7.32;;;3.20;;
